Terminal Aerodrome Forecast
Issued by NWS

Home | Current Version | Previous Version | Text Only | Print | Product List | Glossary On
Versions: 1 2 3 4 5 6 7 8 9 10 11 12
000
FTUS42 TJSJ 230543
TAFKPK
TAF
TKPK 230543Z 2306/2406 07012KT P6SM FEW022
     FM231400 09016KT P6SM VCSH SCT022
     FM232300 07008KT P6SM VCSH SCT020 BKN040
      AMD NOT SKED TIL 231100=

USA.gov is the U.S. government's official web portal to all federal, state and local government web resources and services.